sensor_id;sensor_type;location;lat;lon;timestamp;P1;durP1;ratioP1;P2;durP2;ratioP2
78716;SDS011;68045;50.042;14.432;2023-04-15T00:00:44;3.75;;;2.40;;
78716;SDS011;68045;50.042;14.432;2023-04-15T00:04:49;4.07;;;2.50;;
78716;SDS011;68045;50.042;14.432;2023-04-15T00:08:50;3.92;;;2.45;;
78716;SDS011;68045;50.042;14.432;2023-04-15T00:12:51;3.80;;;2.35;;
78716;SDS011;68045;50.042;14.432;2023-04-15T00:16:52;5.13;;;2.53;;
78716;SDS011;68045;50.042;14.432;2023-04-15T00:20:55;3.35;;;2.22;;
78716;SDS011;68045;50.042;14.432;2023-04-15T00:24:56;4.25;;;2.05;;
78716;SDS011;68045;50.042;14.432;2023-04-15T00:28:57;2.30;;;1.70;;
78716;SDS011;68045;50.042;14.432;2023-04-15T00:32:59;2.90;;;1.75;;
78716;SDS011;68045;50.042;14.432;2023-04-15T00:37:01;2.42;;;1.60;;
78716;SDS011;68045;50.042;14.432;2023-04-15T00:41:02;2.95;;;1.80;;
78716;SDS011;68045;50.042;14.432;2023-04-15T00:45:03;3.10;;;1.88;;
78716;SDS011;68045;50.042;14.432;2023-04-15T00:49:05;3.10;;;1.95;;
78716;SDS011;68045;50.042;14.432;2023-04-15T00:53:07;2.80;;;1.75;;
78716;SDS011;68045;50.042;14.432;2023-04-15T00:57:07;3.55;;;1.90;;
78716;SDS011;68045;50.042;14.432;2023-04-15T01:01:09;3.67;;;1.88;;
78716;SDS011;68045;50.042;14.432;2023-04-15T01:05:10;2.60;;;1.83;;
78716;SDS011;68045;50.042;14.432;2023-04-15T01:09:11;2.78;;;1.95;;
78716;SDS011;68045;50.042;14.432;2023-04-15T01:13:13;2.63;;;1.80;;
78716;SDS011;68045;50.042;14.432;2023-04-15T01:17:14;2.63;;;1.80;;
78716;SDS011;68045;50.042;14.432;2023-04-15T01:21:15;5.18;;;1.80;;
78716;SDS011;68045;50.042;14.432;2023-04-15T01:25:17;2.88;;;1.80;;
78716;SDS011;68045;50.042;14.432;2023-04-15T01:29:19;4.05;;;2.10;;
78716;SDS011;68045;50.042;14.432;2023-04-15T01:33:20;2.97;;;2.30;;
78716;SDS011;68045;50.042;14.432;2023-04-15T01:37:21;3.10;;;2.25;;
78716;SDS011;68045;50.042;14.432;2023-04-15T01:41:27;3.05;;;2.30;;
78716;SDS011;68045;50.042;14.432;2023-04-15T01:45:28;3.63;;;2.65;;
78716;SDS011;68045;50.042;14.432;2023-04-15T01:49:29;4.07;;;2.65;;
78716;SDS011;68045;50.042;14.432;2023-04-15T01:53:30;3.50;;;2.70;;
78716;SDS011;68045;50.042;14.432;2023-04-15T01:57:32;5.05;;;2.53;;
78716;SDS011;68045;50.042;14.432;2023-04-15T02:01:32;3.15;;;2.33;;
78716;SDS011;68045;50.042;14.432;2023-04-15T02:05:34;3.95;;;2.85;;
78716;SDS011;68045;50.042;14.432;2023-04-15T02:09:37;3.72;;;2.30;;
78716;SDS011;68045;50.042;14.432;2023-04-15T02:13:38;3.30;;;2.47;;
78716;SDS011;68045;50.042;14.432;2023-04-15T02:17:39;3.08;;;2.28;;
78716;SDS011;68045;50.042;14.432;2023-04-15T02:21:41;3.78;;;2.40;;
78716;SDS011;68045;50.042;14.432;2023-04-15T02:25:42;4.22;;;2.50;;
78716;SDS011;68045;50.042;14.432;2023-04-15T02:29:43;3.10;;;2.35;;
78716;SDS011;68045;50.042;14.432;2023-04-15T02:33:45;3.10;;;2.40;;
78716;SDS011;68045;50.042;14.432;2023-04-15T02:37:46;4.22;;;2.95;;
78716;SDS011;68045;50.042;14.432;2023-04-15T02:41:47;3.17;;;2.17;;
78716;SDS011;68045;50.042;14.432;2023-04-15T02:45:52;3.42;;;2.40;;
78716;SDS011;68045;50.042;14.432;2023-04-15T02:49:54;3.55;;;2.17;;
78716;SDS011;68045;50.042;14.432;2023-04-15T02:53:55;3.47;;;2.33;;
78716;SDS011;68045;50.042;14.432;2023-04-15T02:57:56;4.20;;;2.58;;
78716;SDS011;68045;50.042;14.432;2023-04-15T03:01:59;3.10;;;2.15;;
78716;SDS011;68045;50.042;14.432;2023-04-15T03:06:00;3.58;;;2.20;;
78716;SDS011;68045;50.042;14.432;2023-04-15T03:10:02;3.00;;;1.98;;
78716;SDS011;68045;50.042;14.432;2023-04-15T03:14:03;2.85;;;2.03;;
78716;SDS011;68045;50.042;14.432;2023-04-15T03:18:08;3.40;;;2.20;;
78716;SDS011;68045;50.042;14.432;2023-04-15T03:22:09;3.47;;;2.17;;
78716;SDS011;68045;50.042;14.432;2023-04-15T03:26:10;2.78;;;1.80;;
78716;SDS011;68045;50.042;14.432;2023-04-15T03:30:24;3.22;;;1.98;;
78716;SDS011;68045;50.042;14.432;2023-04-15T03:34:25;3.50;;;2.00;;
78716;SDS011;68045;50.042;14.432;2023-04-15T03:38:26;3.10;;;1.98;;
78716;SDS011;68045;50.042;14.432;2023-04-15T03:42:26;2.95;;;1.73;;
78716;SDS011;68045;50.042;14.432;2023-04-15T03:46:27;3.13;;;2.00;;
78716;SDS011;68045;50.042;14.432;2023-04-15T03:50:28;2.47;;;1.75;;
78716;SDS011;68045;50.042;14.432;2023-04-15T03:54:29;3.25;;;2.28;;
78716;SDS011;68045;50.042;14.432;2023-04-15T03:58:30;3.80;;;2.83;;
78716;SDS011;68045;50.042;14.432;2023-04-15T04:02:31;4.43;;;3.05;;
78716;SDS011;68045;50.042;14.432;2023-04-15T04:06:31;5.38;;;3.28;;
78716;SDS011;68045;50.042;14.432;2023-04-15T04:10:33;7.82;;;4.78;;
78716;SDS011;68045;50.042;14.432;2023-04-15T04:14:34;7.43;;;4.72;;
78716;SDS011;68045;50.042;14.432;2023-04-15T04:18:35;8.70;;;4.88;;
78716;SDS011;68045;50.042;14.432;2023-04-15T04:22:39;8.98;;;5.18;;
78716;SDS011;68045;50.042;14.432;2023-04-15T04:26:40;8.63;;;5.00;;
78716;SDS011;68045;50.042;14.432;2023-04-15T04:30:41;10.43;;;4.55;;
78716;SDS011;68045;50.042;14.432;2023-04-15T04:34:42;7.32;;;4.35;;
78716;SDS011;68045;50.042;14.432;2023-04-15T04:38:43;6.53;;;4.35;;
78716;SDS011;68045;50.042;14.432;2023-04-15T04:42:44;6.32;;;3.90;;
78716;SDS011;68045;50.042;14.432;2023-04-15T04:46:45;6.65;;;3.85;;
78716;SDS011;68045;50.042;14.432;2023-04-15T04:50:46;5.65;;;3.40;;
78716;SDS011;68045;50.042;14.432;2023-04-15T04:54:46;5.82;;;3.45;;
78716;SDS011;68045;50.042;14.432;2023-04-15T04:58:47;5.78;;;3.85;;
78716;SDS011;68045;50.042;14.432;2023-04-15T05:02:48;5.55;;;3.58;;
78716;SDS011;68045;50.042;14.432;2023-04-15T05:06:49;7.78;;;3.60;;
78716;SDS011;68045;50.042;14.432;2023-04-15T05:10:50;6.57;;;3.70;;
78716;SDS011;68045;50.042;14.432;2023-04-15T05:14:51;6.68;;;4.20;;
78716;SDS011;68045;50.042;14.432;2023-04-15T05:18:52;5.78;;;3.53;;
78716;SDS011;68045;50.042;14.432;2023-04-15T05:22:53;6.45;;;4.00;;
78716;SDS011;68045;50.042;14.432;2023-04-15T05:26:54;6.47;;;4.00;;
78716;SDS011;68045;50.042;14.432;2023-04-15T05:30:55;6.72;;;3.88;;
78716;SDS011;68045;50.042;14.432;2023-04-15T05:34:56;7.55;;;4.05;;
78716;SDS011;68045;50.042;14.432;2023-04-15T05:38:57;6.78;;;3.78;;
78716;SDS011;68045;50.042;14.432;2023-04-15T05:42:58;6.55;;;4.07;;
78716;SDS011;68045;50.042;14.432;2023-04-15T05:46:59;6.25;;;4.47;;
78716;SDS011;68045;50.042;14.432;2023-04-15T05:51:00;5.53;;;3.60;;
78716;SDS011;68045;50.042;14.432;2023-04-15T05:55:01;5.75;;;3.60;;
78716;SDS011;68045;50.042;14.432;2023-04-15T05:59:02;7.32;;;3.58;;
78716;SDS011;68045;50.042;14.432;2023-04-15T06:03:03;5.13;;;3.50;;
78716;SDS011;68045;50.042;14.432;2023-04-15T06:07:04;5.72;;;3.53;;
78716;SDS011;68045;50.042;14.432;2023-04-15T06:11:05;5.97;;;3.85;;
78716;SDS011;68045;50.042;14.432;2023-04-15T06:15:06;4.90;;;3.28;;
78716;SDS011;68045;50.042;14.432;2023-04-15T06:19:10;5.13;;;3.45;;
78716;SDS011;68045;50.042;14.432;2023-04-15T06:23:11;4.85;;;3.55;;
78716;SDS011;68045;50.042;14.432;2023-04-15T06:27:12;4.60;;;2.92;;
78716;SDS011;68045;50.042;14.432;2023-04-15T06:31:13;5.82;;;3.75;;
78716;SDS011;68045;50.042;14.432;2023-04-15T06:35:14;4.57;;;3.08;;
78716;SDS011;68045;50.042;14.432;2023-04-15T06:39:15;3.92;;;2.67;;
78716;SDS011;68045;50.042;14.432;2023-04-15T06:43:16;4.28;;;3.13;;
78716;SDS011;68045;50.042;14.432;2023-04-15T06:47:17;3.35;;;2.42;;
78716;SDS011;68045;50.042;14.432;2023-04-15T06:51:19;3.92;;;2.67;;
78716;SDS011;68045;50.042;14.432;2023-04-15T06:55:20;4.18;;;2.70;;
78716;SDS011;68045;50.042;14.432;2023-04-15T06:59:21;3.85;;;2.53;;
78716;SDS011;68045;50.042;14.432;2023-04-15T07:03:22;3.45;;;2.20;;
78716;SDS011;68045;50.042;14.432;2023-04-15T07:07:23;2.67;;;1.70;;
78716;SDS011;68045;50.042;14.432;2023-04-15T07:11:25;3.97;;;1.95;;
78716;SDS011;68045;50.042;14.432;2023-04-15T07:15:26;1.83;;;1.30;;
78716;SDS011;68045;50.042;14.432;2023-04-15T07:19:27;1.80;;;1.20;;
78716;SDS011;68045;50.042;14.432;2023-04-15T07:23:28;1.73;;;1.30;;
78716;SDS011;68045;50.042;14.432;2023-04-15T07:27:29;1.58;;;1.10;;
78716;SDS011;68045;50.042;14.432;2023-04-15T07:31:30;1.10;;;0.98;;
78716;SDS011;68045;50.042;14.432;2023-04-15T07:35:31;1.02;;;0.80;;
78716;SDS011;68045;50.042;14.432;2023-04-15T07:39:32;1.60;;;1.10;;
78716;SDS011;68045;50.042;14.432;2023-04-15T07:43:33;1.25;;;0.90;;
78716;SDS011;68045;50.042;14.432;2023-04-15T07:47:54;0.95;;;0.90;;
78716;SDS011;68045;50.042;14.432;2023-04-15T07:52:09;0.95;;;0.93;;
78716;SDS011;68045;50.042;14.432;2023-04-15T07:56:29;0.98;;;0.90;;
78716;SDS011;68045;50.042;14.432;2023-04-15T08:00:44;1.73;;;1.10;;
78716;SDS011;68045;50.042;14.432;2023-04-15T08:05:04;1.67;;;1.27;;
78716;SDS011;68045;50.042;14.432;2023-04-15T08:09:20;2.22;;;1.20;;
78716;SDS011;68045;50.042;14.432;2023-04-15T08:13:40;1.65;;;1.17;;
78716;SDS011;68045;50.042;14.432;2023-04-15T08:17:55;2.00;;;1.35;;
78716;SDS011;68045;50.042;14.432;2023-04-15T08:26:11;2.70;;;1.60;;
78716;SDS011;68045;50.042;14.432;2023-04-15T08:30:12;2.88;;;1.50;;
78716;SDS011;68045;50.042;14.432;2023-04-15T08:34:14;2.20;;;1.42;;
78716;SDS011;68045;50.042;14.432;2023-04-15T08:38:15;2.78;;;1.50;;
78716;SDS011;68045;50.042;14.432;2023-04-15T08:42:16;2.65;;;1.85;;
78716;SDS011;68045;50.042;14.432;2023-04-15T08:46:22;2.60;;;1.60;;
78716;SDS011;68045;50.042;14.432;2023-04-15T08:50:24;1.83;;;1.30;;
78716;SDS011;68045;50.042;14.432;2023-04-15T08:54:27;1.40;;;1.20;;
78716;SDS011;68045;50.042;14.432;2023-04-15T08:58:28;2.13;;;1.65;;
78716;SDS011;68045;50.042;14.432;2023-04-15T09:02:29;2.90;;;1.90;;
78716;SDS011;68045;50.042;14.432;2023-04-15T09:06:31;3.25;;;1.80;;
78716;SDS011;68045;50.042;14.432;2023-04-15T09:10:31;2.50;;;1.85;;
78716;SDS011;68045;50.042;14.432;2023-04-15T09:14:33;2.60;;;1.77;;
78716;SDS011;68045;50.042;14.432;2023-04-15T09:18:35;2.30;;;1.70;;
78716;SDS011;68045;50.042;14.432;2023-04-15T09:22:36;2.90;;;1.70;;
78716;SDS011;68045;50.042;14.432;2023-04-15T09:26:38;2.30;;;1.80;;
78716;SDS011;68045;50.042;14.432;2023-04-15T09:30:41;2.80;;;2.00;;
78716;SDS011;68045;50.042;14.432;2023-04-15T09:34:45;2.90;;;1.75;;
78716;SDS011;68045;50.042;14.432;2023-04-15T09:38:54;2.30;;;1.60;;
78716;SDS011;68045;50.042;14.432;2023-04-15T09:42:56;3.47;;;2.00;;
78716;SDS011;68045;50.042;14.432;2023-04-15T09:46:58;3.83;;;2.20;;
78716;SDS011;68045;50.042;14.432;2023-04-15T09:51:00;4.78;;;2.75;;
78716;SDS011;68045;50.042;14.432;2023-04-15T09:55:01;3.67;;;2.22;;
78716;SDS011;68045;50.042;14.432;2023-04-15T09:59:04;4.05;;;2.67;;
78716;SDS011;68045;50.042;14.432;2023-04-15T10:03:05;5.53;;;2.65;;
78716;SDS011;68045;50.042;14.432;2023-04-15T10:07:10;4.55;;;2.88;;
78716;SDS011;68045;50.042;14.432;2023-04-15T10:11:12;3.40;;;2.45;;
78716;SDS011;68045;50.042;14.432;2023-04-15T10:15:14;3.58;;;2.53;;
78716;SDS011;68045;50.042;14.432;2023-04-15T10:19:17;3.90;;;2.45;;
78716;SDS011;68045;50.042;14.432;2023-04-15T10:23:25;3.80;;;2.45;;
78716;SDS011;68045;50.042;14.432;2023-04-15T10:27:27;3.42;;;2.35;;
78716;SDS011;68045;50.042;14.432;2023-04-15T10:31:28;2.90;;;2.17;;
78716;SDS011;68045;50.042;14.432;2023-04-15T10:35:30;3.08;;;2.15;;
78716;SDS011;68045;50.042;14.432;2023-04-15T10:43:34;3.33;;;2.42;;
78716;SDS011;68045;50.042;14.432;2023-04-15T10:47:36;4.55;;;2.35;;
78716;SDS011;68045;50.042;14.432;2023-04-15T10:51:41;3.97;;;2.38;;
78716;SDS011;68045;50.042;14.432;2023-04-15T10:55:44;4.43;;;2.85;;
78716;SDS011;68045;50.042;14.432;2023-04-15T11:04:04;3.55;;;2.30;;
78716;SDS011;68045;50.042;14.432;2023-04-15T11:08:06;4.05;;;2.30;;
78716;SDS011;68045;50.042;14.432;2023-04-15T11:12:08;7.53;;;3.15;;
78716;SDS011;68045;50.042;14.432;2023-04-15T11:16:10;3.53;;;2.40;;
78716;SDS011;68045;50.042;14.432;2023-04-15T11:20:13;4.43;;;3.22;;
78716;SDS011;68045;50.042;14.432;2023-04-15T11:24:22;4.93;;;2.60;;
78716;SDS011;68045;50.042;14.432;2023-04-15T11:28:28;4.82;;;3.30;;
78716;SDS011;68045;50.042;14.432;2023-04-15T11:32:29;5.05;;;2.80;;
78716;SDS011;68045;50.042;14.432;2023-04-15T11:36:30;4.53;;;2.42;;
78716;SDS011;68045;50.042;14.432;2023-04-15T11:40:31;4.32;;;2.45;;
78716;SDS011;68045;50.042;14.432;2023-04-15T11:44:32;5.43;;;2.83;;
78716;SDS011;68045;50.042;14.432;2023-04-15T11:48:34;5.28;;;2.70;;
78716;SDS011;68045;50.042;14.432;2023-04-15T11:52:36;3.95;;;2.38;;
78716;SDS011;68045;50.042;14.432;2023-04-15T11:56:37;3.83;;;2.33;;
78716;SDS011;68045;50.042;14.432;2023-04-15T12:00:38;3.83;;;2.38;;
78716;SDS011;68045;50.042;14.432;2023-04-15T12:04:39;5.65;;;2.58;;
78716;SDS011;68045;50.042;14.432;2023-04-15T12:12:56;4.57;;;2.40;;
78716;SDS011;68045;50.042;14.432;2023-04-15T12:16:58;4.40;;;2.80;;
78716;SDS011;68045;50.042;14.432;2023-04-15T12:21:10;5.20;;;2.40;;
78716;SDS011;68045;50.042;14.432;2023-04-15T12:25:11;3.70;;;2.58;;
78716;SDS011;68045;50.042;14.432;2023-04-15T12:29:13;3.67;;;2.38;;
78716;SDS011;68045;50.042;14.432;2023-04-15T12:33:15;3.83;;;2.50;;
78716;SDS011;68045;50.042;14.432;2023-04-15T12:37:16;5.03;;;2.55;;
78716;SDS011;68045;50.042;14.432;2023-04-15T12:41:18;3.60;;;2.20;;
78716;SDS011;68045;50.042;14.432;2023-04-15T12:45:20;5.93;;;3.55;;
78716;SDS011;68045;50.042;14.432;2023-04-15T12:49:21;6.57;;;3.13;;
78716;SDS011;68045;50.042;14.432;2023-04-15T12:53:23;5.35;;;2.92;;
78716;SDS011;68045;50.042;14.432;2023-04-15T12:57:24;3.35;;;2.13;;
78716;SDS011;68045;50.042;14.432;2023-04-15T13:01:25;4.13;;;2.42;;
78716;SDS011;68045;50.042;14.432;2023-04-15T13:05:26;4.28;;;2.70;;
78716;SDS011;68045;50.042;14.432;2023-04-15T13:09:27;3.65;;;2.40;;
78716;SDS011;68045;50.042;14.432;2023-04-15T13:13:28;5.35;;;2.40;;
78716;SDS011;68045;50.042;14.432;2023-04-15T13:17:31;3.33;;;2.38;;
78716;SDS011;68045;50.042;14.432;2023-04-15T13:21:32;3.15;;;2.28;;
78716;SDS011;68045;50.042;14.432;2023-04-15T13:25:34;5.53;;;2.30;;
78716;SDS011;68045;50.042;14.432;2023-04-15T13:29:36;3.35;;;2.20;;
78716;SDS011;68045;50.042;14.432;2023-04-15T13:33:37;3.25;;;2.05;;
78716;SDS011;68045;50.042;14.432;2023-04-15T13:37:38;4.30;;;2.35;;
78716;SDS011;68045;50.042;14.432;2023-04-15T13:41:39;3.38;;;2.28;;
78716;SDS011;68045;50.042;14.432;2023-04-15T13:45:40;4.07;;;2.22;;
78716;SDS011;68045;50.042;14.432;2023-04-15T13:49:41;3.25;;;2.20;;
78716;SDS011;68045;50.042;14.432;2023-04-15T13:53:42;3.35;;;2.35;;
78716;SDS011;68045;50.042;14.432;2023-04-15T13:57:43;3.97;;;2.38;;
78716;SDS011;68045;50.042;14.432;2023-04-15T14:01:44;4.40;;;2.70;;
78716;SDS011;68045;50.042;14.432;2023-04-15T14:05:45;3.83;;;2.55;;
78716;SDS011;68045;50.042;14.432;2023-04-15T14:09:45;5.63;;;2.70;;
78716;SDS011;68045;50.042;14.432;2023-04-15T14:13:47;3.38;;;2.38;;
78716;SDS011;68045;50.042;14.432;2023-04-15T14:17:48;2.72;;;1.83;;
78716;SDS011;68045;50.042;14.432;2023-04-15T14:21:49;3.65;;;2.40;;
78716;SDS011;68045;50.042;14.432;2023-04-15T14:25:50;3.65;;;2.65;;
78716;SDS011;68045;50.042;14.432;2023-04-15T14:29:51;6.93;;;2.95;;
78716;SDS011;68045;50.042;14.432;2023-04-15T14:33:53;3.47;;;2.30;;
78716;SDS011;68045;50.042;14.432;2023-04-15T14:37:54;3.67;;;2.22;;
78716;SDS011;68045;50.042;14.432;2023-04-15T14:41:55;3.63;;;2.47;;
78716;SDS011;68045;50.042;14.432;2023-04-15T14:45:56;4.63;;;2.78;;
78716;SDS011;68045;50.042;14.432;2023-04-15T14:49:57;4.10;;;2.20;;
78716;SDS011;68045;50.042;14.432;2023-04-15T14:53:58;3.47;;;2.10;;
78716;SDS011;68045;50.042;14.432;2023-04-15T14:57:59;3.97;;;2.08;;
78716;SDS011;68045;50.042;14.432;2023-04-15T15:02:01;3.08;;;2.00;;
78716;SDS011;68045;50.042;14.432;2023-04-15T15:06:03;3.40;;;2.20;;
78716;SDS011;68045;50.042;14.432;2023-04-15T15:10:04;2.80;;;1.90;;
78716;SDS011;68045;50.042;14.432;2023-04-15T15:14:06;3.45;;;2.10;;
78716;SDS011;68045;50.042;14.432;2023-04-15T15:18:07;3.40;;;2.20;;
78716;SDS011;68045;50.042;14.432;2023-04-15T15:22:08;5.05;;;2.00;;
78716;SDS011;68045;50.042;14.432;2023-04-15T15:26:09;3.38;;;2.08;;
78716;SDS011;68045;50.042;14.432;2023-04-15T15:30:11;4.57;;;2.20;;
78716;SDS011;68045;50.042;14.432;2023-04-15T15:34:12;2.90;;;2.00;;
78716;SDS011;68045;50.042;14.432;2023-04-15T15:38:13;4.63;;;2.20;;
78716;SDS011;68045;50.042;14.432;2023-04-15T15:42:14;3.25;;;2.30;;
78716;SDS011;68045;50.042;14.432;2023-04-15T15:46:15;3.83;;;2.50;;
78716;SDS011;68045;50.042;14.432;2023-04-15T15:50:16;3.47;;;2.05;;
78716;SDS011;68045;50.042;14.432;2023-04-15T15:54:17;3.38;;;2.25;;
78716;SDS011;68045;50.042;14.432;2023-04-15T15:58:18;3.70;;;2.30;;
78716;SDS011;68045;50.042;14.432;2023-04-15T16:02:20;4.50;;;2.40;;
78716;SDS011;68045;50.042;14.432;2023-04-15T16:06:21;3.08;;;2.03;;
78716;SDS011;68045;50.042;14.432;2023-04-15T16:10:23;5.97;;;2.25;;
78716;SDS011;68045;50.042;14.432;2023-04-15T16:14:24;3.78;;;2.42;;
78716;SDS011;68045;50.042;14.432;2023-04-15T16:18:25;3.60;;;2.50;;
78716;SDS011;68045;50.042;14.432;2023-04-15T16:22:26;4.45;;;2.25;;
78716;SDS011;68045;50.042;14.432;2023-04-15T16:26:27;4.00;;;2.67;;
78716;SDS011;68045;50.042;14.432;2023-04-15T16:30:28;4.68;;;3.03;;
78716;SDS011;68045;50.042;14.432;2023-04-15T16:34:29;6.95;;;3.15;;
78716;SDS011;68045;50.042;14.432;2023-04-15T16:38:30;3.85;;;2.65;;
78716;SDS011;68045;50.042;14.432;2023-04-15T16:42:31;3.85;;;2.75;;
78716;SDS011;68045;50.042;14.432;2023-04-15T16:46:32;4.45;;;2.42;;
78716;SDS011;68045;50.042;14.432;2023-04-15T16:50:33;4.85;;;2.72;;
78716;SDS011;68045;50.042;14.432;2023-04-15T16:54:36;7.93;;;4.50;;
78716;SDS011;68045;50.042;14.432;2023-04-15T16:58:40;13.60;;;7.45;;
78716;SDS011;68045;50.042;14.432;2023-04-15T17:02:41;9.63;;;6.72;;
78716;SDS011;68045;50.042;14.432;2023-04-15T17:06:42;8.52;;;5.05;;
78716;SDS011;68045;50.042;14.432;2023-04-15T17:10:43;5.68;;;3.90;;
78716;SDS011;68045;50.042;14.432;2023-04-15T17:14:44;5.22;;;3.63;;
78716;SDS011;68045;50.042;14.432;2023-04-15T17:18:45;6.55;;;3.95;;
78716;SDS011;68045;50.042;14.432;2023-04-15T17:22:47;7.00;;;4.63;;
78716;SDS011;68045;50.042;14.432;2023-04-15T17:26:48;5.60;;;4.10;;
78716;SDS011;68045;50.042;14.432;2023-04-15T17:30:48;5.00;;;3.15;;
78716;SDS011;68045;50.042;14.432;2023-04-15T17:34:49;4.53;;;3.00;;
78716;SDS011;68045;50.042;14.432;2023-04-15T17:38:50;7.10;;;4.88;;
78716;SDS011;68045;50.042;14.432;2023-04-15T17:42:52;7.90;;;4.10;;
78716;SDS011;68045;50.042;14.432;2023-04-15T17:46:53;5.20;;;3.42;;
78716;SDS011;68045;50.042;14.432;2023-04-15T17:50:54;6.05;;;3.90;;
78716;SDS011;68045;50.042;14.432;2023-04-15T17:54:55;7.40;;;3.90;;
78716;SDS011;68045;50.042;14.432;2023-04-15T17:58:55;6.95;;;4.35;;
78716;SDS011;68045;50.042;14.432;2023-04-15T18:02:57;5.60;;;3.88;;
78716;SDS011;68045;50.042;14.432;2023-04-15T18:06:58;4.90;;;3.70;;
78716;SDS011;68045;50.042;14.432;2023-04-15T18:10:59;6.15;;;4.15;;
78716;SDS011;68045;50.042;14.432;2023-04-15T18:15:00;8.88;;;4.70;;
78716;SDS011;68045;50.042;14.432;2023-04-15T18:19:01;6.20;;;4.60;;
78716;SDS011;68045;50.042;14.432;2023-04-15T18:23:02;8.40;;;4.70;;
78716;SDS011;68045;50.042;14.432;2023-04-15T18:27:03;13.27;;;4.68;;
78716;SDS011;68045;50.042;14.432;2023-04-15T18:31:04;8.82;;;4.78;;
78716;SDS011;68045;50.042;14.432;2023-04-15T18:35:05;9.77;;;5.35;;
78716;SDS011;68045;50.042;14.432;2023-04-15T18:39:07;10.05;;;5.47;;
78716;SDS011;68045;50.042;14.432;2023-04-15T18:43:07;7.53;;;5.10;;
78716;SDS011;68045;50.042;14.432;2023-04-15T18:47:09;7.90;;;5.40;;
78716;SDS011;68045;50.042;14.432;2023-04-15T18:51:09;9.23;;;5.97;;
78716;SDS011;68045;50.042;14.432;2023-04-15T18:55:10;12.48;;;6.32;;
78716;SDS011;68045;50.042;14.432;2023-04-15T18:59:11;9.68;;;6.72;;
78716;SDS011;68045;50.042;14.432;2023-04-15T19:03:12;10.43;;;6.78;;
78716;SDS011;68045;50.042;14.432;2023-04-15T19:07:13;11.00;;;6.53;;
78716;SDS011;68045;50.042;14.432;2023-04-15T19:11:14;8.85;;;6.50;;
78716;SDS011;68045;50.042;14.432;2023-04-15T19:15:15;10.38;;;6.82;;
78716;SDS011;68045;50.042;14.432;2023-04-15T19:19:16;11.15;;;6.53;;
78716;SDS011;68045;50.042;14.432;2023-04-15T19:23:17;11.45;;;6.82;;
78716;SDS011;68045;50.042;14.432;2023-04-15T19:27:18;11.65;;;6.38;;
78716;SDS011;68045;50.042;14.432;2023-04-15T19:31:19;8.55;;;5.68;;
78716;SDS011;68045;50.042;14.432;2023-04-15T19:35:20;10.07;;;6.20;;
78716;SDS011;68045;50.042;14.432;2023-04-15T19:39:21;9.07;;;5.80;;
78716;SDS011;68045;50.042;14.432;2023-04-15T19:43:23;9.13;;;6.00;;
78716;SDS011;68045;50.042;14.432;2023-04-15T19:47:24;11.82;;;6.55;;
78716;SDS011;68045;50.042;14.432;2023-04-15T19:51:25;10.60;;;5.68;;
78716;SDS011;68045;50.042;14.432;2023-04-15T19:55:27;9.55;;;5.80;;
78716;SDS011;68045;50.042;14.432;2023-04-15T19:59:28;8.10;;;5.53;;
78716;SDS011;68045;50.042;14.432;2023-04-15T20:03:30;9.15;;;5.85;;
78716;SDS011;68045;50.042;14.432;2023-04-15T20:07:30;9.45;;;6.03;;
78716;SDS011;68045;50.042;14.432;2023-04-15T20:11:31;9.32;;;6.20;;
78716;SDS011;68045;50.042;14.432;2023-04-15T20:15:32;11.52;;;6.75;;
78716;SDS011;68045;50.042;14.432;2023-04-15T20:19:33;13.90;;;7.65;;
78716;SDS011;68045;50.042;14.432;2023-04-15T20:23:34;10.65;;;7.35;;
78716;SDS011;68045;50.042;14.432;2023-04-15T20:27:35;15.15;;;7.13;;
78716;SDS011;68045;50.042;14.432;2023-04-15T20:31:36;11.05;;;6.97;;
78716;SDS011;68045;50.042;14.432;2023-04-15T20:35:37;10.88;;;7.20;;
78716;SDS011;68045;50.042;14.432;2023-04-15T20:39:39;11.95;;;7.03;;
78716;SDS011;68045;50.042;14.432;2023-04-15T20:43:40;12.35;;;7.10;;
78716;SDS011;68045;50.042;14.432;2023-04-15T20:47:41;12.93;;;7.10;;
78716;SDS011;68045;50.042;14.432;2023-04-15T20:51:42;13.55;;;7.97;;
78716;SDS011;68045;50.042;14.432;2023-04-15T20:55:43;11.52;;;8.02;;
78716;SDS011;68045;50.042;14.432;2023-04-15T20:59:45;12.25;;;7.72;;
78716;SDS011;68045;50.042;14.432;2023-04-15T21:03:46;14.35;;;8.55;;
78716;SDS011;68045;50.042;14.432;2023-04-15T21:07:46;19.73;;;10.30;;
78716;SDS011;68045;50.042;14.432;2023-04-15T21:11:48;14.55;;;8.65;;
78716;SDS011;68045;50.042;14.432;2023-04-15T21:15:49;14.60;;;8.07;;
78716;SDS011;68045;50.042;14.432;2023-04-15T21:19:53;16.42;;;10.60;;
78716;SDS011;68045;50.042;14.432;2023-04-15T21:23:54;15.05;;;9.32;;
78716;SDS011;68045;50.042;14.432;2023-04-15T21:27:55;14.68;;;8.95;;
78716;SDS011;68045;50.042;14.432;2023-04-15T21:31:56;16.50;;;9.77;;
78716;SDS011;68045;50.042;14.432;2023-04-15T21:35:57;18.52;;;10.65;;
78716;SDS011;68045;50.042;14.432;2023-04-15T21:39:58;17.55;;;10.32;;
78716;SDS011;68045;50.042;14.432;2023-04-15T21:43:59;15.02;;;9.38;;
78716;SDS011;68045;50.042;14.432;2023-04-15T21:48:01;19.23;;;11.45;;
78716;SDS011;68045;50.042;14.432;2023-04-15T21:52:03;19.52;;;11.13;;
78716;SDS011;68045;50.042;14.432;2023-04-15T21:56:04;19.50;;;11.73;;
78716;SDS011;68045;50.042;14.432;2023-04-15T22:00:08;22.20;;;10.60;;
78716;SDS011;68045;50.042;14.432;2023-04-15T22:04:10;21.58;;;12.02;;
78716;SDS011;68045;50.042;14.432;2023-04-15T22:08:10;21.13;;;11.38;;
78716;SDS011;68045;50.042;14.432;2023-04-15T22:12:11;17.35;;;10.98;;
78716;SDS011;68045;50.042;14.432;2023-04-15T22:16:12;20.13;;;11.55;;
78716;SDS011;68045;50.042;14.432;2023-04-15T22:20:13;19.38;;;11.00;;
78716;SDS011;68045;50.042;14.432;2023-04-15T22:24:14;18.77;;;11.25;;
78716;SDS011;68045;50.042;14.432;2023-04-15T22:28:14;18.75;;;10.05;;
78716;SDS011;68045;50.042;14.432;2023-04-15T22:32:15;19.50;;;11.15;;
78716;SDS011;68045;50.042;14.432;2023-04-15T22:36:16;21.17;;;12.60;;
78716;SDS011;68045;50.042;14.432;2023-04-15T22:40:17;21.50;;;12.95;;
78716;SDS011;68045;50.042;14.432;2023-04-15T22:44:18;23.58;;;12.52;;
78716;SDS011;68045;50.042;14.432;2023-04-15T22:48:19;22.27;;;12.50;;
78716;SDS011;68045;50.042;14.432;2023-04-15T22:52:20;25.95;;;12.85;;
78716;SDS011;68045;50.042;14.432;2023-04-15T22:56:21;22.88;;;13.13;;
78716;SDS011;68045;50.042;14.432;2023-04-15T23:00:22;25.92;;;13.93;;
78716;SDS011;68045;50.042;14.432;2023-04-15T23:04:23;25.50;;;13.50;;
78716;SDS011;68045;50.042;14.432;2023-04-15T23:08:24;19.63;;;12.38;;
78716;SDS011;68045;50.042;14.432;2023-04-15T23:12:25;20.80;;;11.68;;
78716;SDS011;68045;50.042;14.432;2023-04-15T23:16:26;23.42;;;12.48;;
78716;SDS011;68045;50.042;14.432;2023-04-15T23:20:27;26.63;;;14.35;;
78716;SDS011;68045;50.042;14.432;2023-04-15T23:24:28;28.40;;;13.68;;
78716;SDS011;68045;50.042;14.432;2023-04-15T23:28:29;24.85;;;12.38;;
78716;SDS011;68045;50.042;14.432;2023-04-15T23:32:30;22.80;;;12.00;;
78716;SDS011;68045;50.042;14.432;2023-04-15T23:36:31;25.52;;;12.75;;
78716;SDS011;68045;50.042;14.432;2023-04-15T23:40:32;25.70;;;13.77;;
78716;SDS011;68045;50.042;14.432;2023-04-15T23:44:33;28.65;;;14.32;;
78716;SDS011;68045;50.042;14.432;2023-04-15T23:48:34;25.25;;;13.20;;
78716;SDS011;68045;50.042;14.432;2023-04-15T23:52:35;22.67;;;12.80;;
78716;SDS011;68045;50.042;14.432;2023-04-15T23:56:36;23.25;;;12.55;;
